sensor_id;sensor_type;location;lat;lon;timestamp;pressure;altitude;pressure_sealevel;temperature;humidity
47726;BME280;33483;48.294;16.388;2023-02-04T00:00:17;99591.44;;;6.41;100.00
47726;BME280;33483;48.294;16.388;2023-02-04T00:03:07;99593.44;;;6.40;100.00
47726;BME280;33483;48.294;16.388;2023-02-04T00:05:34;99591.16;;;6.39;100.00
47726;BME280;33483;48.294;16.388;2023-02-04T00:08:02;99581.91;;;6.36;100.00
47726;BME280;33483;48.294;16.388;2023-02-04T00:10:30;99588.41;;;6.33;100.00
47726;BME280;33483;48.294;16.388;2023-02-04T00:12:57;99604.91;;;6.33;100.00
47726;BME280;33483;48.294;16.388;2023-02-04T00:15:24;99596.16;;;6.35;100.00
47726;BME280;33483;48.294;16.388;2023-02-04T00:17:51;99595.91;;;6.38;100.00
47726;BME280;33483;48.294;16.388;2023-02-04T00:20:18;99592.69;;;6.34;100.00
47726;BME280;33483;48.294;16.388;2023-02-04T00:22:45;99581.66;;;6.34;100.00
47726;BME280;33483;48.294;16.388;2023-02-04T00:25:13;99587.91;;;6.40;100.00
47726;BME280;33483;48.294;16.388;2023-02-04T00:27:40;99584.41;;;6.40;100.00
47726;BME280;33483;48.294;16.388;2023-02-04T00:30:07;99584.91;;;6.44;100.00
47726;BME280;33483;48.294;16.388;2023-02-04T00:32:35;99585.19;;;6.46;100.00
47726;BME280;33483;48.294;16.388;2023-02-04T00:35:02;99582.16;;;6.44;100.00
47726;BME280;33483;48.294;16.388;2023-02-04T00:37:30;99585.19;;;6.51;100.00
47726;BME280;33483;48.294;16.388;2023-02-04T00:39:58;99582.19;;;6.49;100.00
47726;BME280;33483;48.294;16.388;2023-02-04T00:42:28;99589.19;;;6.56;100.00
47726;BME280;33483;48.294;16.388;2023-02-04T00:44:57;99581.94;;;6.58;100.00
47726;BME280;33483;48.294;16.388;2023-02-04T00:47:24;99573.44;;;6.56;100.00
47726;BME280;33483;48.294;16.388;2023-02-04T00:49:51;99549.41;;;6.62;100.00
47726;BME280;33483;48.294;16.388;2023-02-04T00:52:18;99563.94;;;6.68;100.00
47726;BME280;33483;48.294;16.388;2023-02-04T00:54:48;99550.66;;;6.67;100.00
47726;BME280;33483;48.294;16.388;2023-02-04T00:57:15;99557.91;;;6.64;100.00
47726;BME280;33483;48.294;16.388;2023-02-04T00:59:43;99546.16;;;6.58;100.00
47726;BME280;33483;48.294;16.388;2023-02-04T01:02:09;99538.41;;;6.62;100.00
47726;BME280;33483;48.294;16.388;2023-02-04T01:04:37;99542.66;;;6.63;100.00
47726;BME280;33483;48.294;16.388;2023-02-04T01:07:04;99544.41;;;6.66;100.00
47726;BME280;33483;48.294;16.388;2023-02-04T01:09:31;99526.38;;;6.71;100.00
47726;BME280;33483;48.294;16.388;2023-02-04T01:12:00;99524.34;;;6.71;100.00
47726;BME280;33483;48.294;16.388;2023-02-04T01:14:28;99532.63;;;6.71;100.00
47726;BME280;33483;48.294;16.388;2023-02-04T01:16:55;99523.63;;;6.71;100.00
47726;BME280;33483;48.294;16.388;2023-02-04T01:19:22;99519.59;;;6.72;100.00
47726;BME280;33483;48.294;16.388;2023-02-04T01:21:55;99522.38;;;6.77;100.00
47726;BME280;33483;48.294;16.388;2023-02-04T01:24:22;99527.63;;;6.75;100.00
47726;BME280;33483;48.294;16.388;2023-02-04T01:27:07;99524.38;;;6.82;100.00
47726;BME280;33483;48.294;16.388;2023-02-04T01:29:35;99520.09;;;6.87;100.00
47726;BME280;33483;48.294;16.388;2023-02-04T01:32:02;99510.34;;;6.86;100.00
47726;BME280;33483;48.294;16.388;2023-02-04T01:34:29;99520.84;;;6.88;100.00
47726;BME280;33483;48.294;16.388;2023-02-04T01:36:57;99523.34;;;6.85;100.00
47726;BME280;33483;48.294;16.388;2023-02-04T01:39:24;99501.56;;;6.82;100.00
47726;BME280;33483;48.294;16.388;2023-02-04T01:41:51;99499.06;;;6.78;100.00
47726;BME280;33483;48.294;16.388;2023-02-04T01:44:18;99519.34;;;6.81;100.00
47726;BME280;33483;48.294;16.388;2023-02-04T01:46:45;99517.38;;;6.81;100.00
47726;BME280;33483;48.294;16.388;2023-02-04T01:49:13;99509.31;;;6.83;100.00
47726;BME280;33483;48.294;16.388;2023-02-04T01:51:39;99505.09;;;6.82;100.00
47726;BME280;33483;48.294;16.388;2023-02-04T01:54:11;99505.34;;;6.84;100.00
47726;BME280;33483;48.294;16.388;2023-02-04T01:56:40;99508.09;;;6.84;100.00
47726;BME280;33483;48.294;16.388;2023-02-04T01:59:10;99527.13;;;6.82;100.00
47726;BME280;33483;48.294;16.388;2023-02-04T02:01:45;99508.84;;;6.79;100.00
47726;BME280;33483;48.294;16.388;2023-02-04T02:04:14;99517.59;;;6.83;100.00
47726;BME280;33483;48.294;16.388;2023-02-04T02:06:43;99510.34;;;6.80;100.00
47726;BME280;33483;48.294;16.388;2023-02-04T02:09:11;99517.84;;;6.80;100.00
47726;BME280;33483;48.294;16.388;2023-02-04T02:11:38;99511.84;;;6.81;100.00
47726;BME280;33483;48.294;16.388;2023-02-04T02:14:06;99499.81;;;6.84;100.00
47726;BME280;33483;48.294;16.388;2023-02-04T02:16:33;99509.59;;;6.85;99.71
47726;BME280;33483;48.294;16.388;2023-02-04T02:19:00;99505.09;;;6.88;99.27
47726;BME280;33483;48.294;16.388;2023-02-04T02:21:37;99507.59;;;6.86;99.89
47726;BME280;33483;48.294;16.388;2023-02-04T02:26:52;99503.31;;;6.91;98.13
47726;BME280;33483;48.294;16.388;2023-02-04T02:29:23;99500.56;;;6.91;98.19
47726;BME280;33483;48.294;16.388;2023-02-04T02:31:51;99491.78;;;6.98;96.07
47726;BME280;33483;48.294;16.388;2023-02-04T02:34:18;99494.53;;;6.98;96.66
47726;BME280;33483;48.294;16.388;2023-02-04T02:36:46;99488.53;;;6.94;97.31
47726;BME280;33483;48.294;16.388;2023-02-04T02:39:13;99491.56;;;6.90;99.29
47726;BME280;33483;48.294;16.388;2023-02-04T02:41:40;99497.31;;;6.92;98.22
47726;BME280;33483;48.294;16.388;2023-02-04T02:44:08;99501.81;;;6.90;98.86
47726;BME280;33483;48.294;16.388;2023-02-04T02:46:37;99494.81;;;6.89;99.01
47726;BME280;33483;48.294;16.388;2023-02-04T02:49:09;99492.28;;;6.91;98.66
47726;BME280;33483;48.294;16.388;2023-02-04T02:51:39;99487.78;;;6.88;99.25
47726;BME280;33483;48.294;16.388;2023-02-04T02:54:12;99512.06;;;6.89;98.83
47726;BME280;33483;48.294;16.388;2023-02-04T02:56:45;99504.06;;;6.91;98.74
47726;BME280;33483;48.294;16.388;2023-02-04T02:59:13;99495.81;;;6.85;100.00
47726;BME280;33483;48.294;16.388;2023-02-04T03:01:40;99479.53;;;6.88;99.58
47726;BME280;33483;48.294;16.388;2023-02-04T03:04:09;99496.31;;;6.90;99.69
47726;BME280;33483;48.294;16.388;2023-02-04T03:06:36;99494.78;;;6.94;96.08
47726;BME280;33483;48.294;16.388;2023-02-04T03:09:04;99493.03;;;6.91;97.54
47726;BME280;33483;48.294;16.388;2023-02-04T03:11:31;99474.53;;;6.92;99.09
47726;BME280;33483;48.294;16.388;2023-02-04T03:13:59;99483.53;;;6.92;97.68
47726;BME280;33483;48.294;16.388;2023-02-04T03:16:30;99499.31;;;6.92;98.38
47726;BME280;33483;48.294;16.388;2023-02-04T03:18:59;99481.03;;;6.89;97.75
47726;BME280;33483;48.294;16.388;2023-02-04T03:21:27;99505.84;;;6.89;99.09
47726;BME280;33483;48.294;16.388;2023-02-04T03:23:55;99484.78;;;6.85;100.00
47726;BME280;33483;48.294;16.388;2023-02-04T03:26:23;99516.84;;;6.77;100.00
47726;BME280;33483;48.294;16.388;2023-02-04T03:28:53;99507.34;;;6.78;100.00
47726;BME280;33483;48.294;16.388;2023-02-04T03:31:20;99521.84;;;6.73;100.00
47726;BME280;33483;48.294;16.388;2023-02-04T03:33:48;99507.09;;;6.71;100.00
47726;BME280;33483;48.294;16.388;2023-02-04T03:36:15;99506.84;;;6.63;100.00
47726;BME280;33483;48.294;16.388;2023-02-04T03:38:42;99520.09;;;6.59;100.00
47726;BME280;33483;48.294;16.388;2023-02-04T03:41:09;99520.34;;;6.56;100.00
47726;BME280;33483;48.294;16.388;2023-02-04T03:43:36;99543.13;;;6.51;100.00
47726;BME280;33483;48.294;16.388;2023-02-04T03:46:03;99531.63;;;6.47;100.00
47726;BME280;33483;48.294;16.388;2023-02-04T03:48:32;99521.84;;;6.40;100.00
47726;BME280;33483;48.294;16.388;2023-02-04T03:50:59;99530.09;;;6.35;100.00
47726;BME280;33483;48.294;16.388;2023-02-04T03:53:27;99534.63;;;6.32;100.00
47726;BME280;33483;48.294;16.388;2023-02-04T03:55:54;99546.63;;;6.29;100.00
47726;BME280;33483;48.294;16.388;2023-02-04T03:58:21;99533.59;;;6.13;100.00
47726;BME280;33483;48.294;16.388;2023-02-04T04:00:48;99553.00;;;5.88;100.00
47726;BME280;33483;48.294;16.388;2023-02-04T04:03:16;99546.88;;;5.56;100.00
47726;BME280;33483;48.294;16.388;2023-02-04T04:05:42;99577.38;;;5.16;100.00
47726;BME280;33483;48.294;16.388;2023-02-04T04:08:12;99577.88;;;4.83;100.00
47726;BME280;33483;48.294;16.388;2023-02-04T04:10:39;99621.59;;;4.61;100.00
47726;BME280;33483;48.294;16.388;2023-02-04T04:13:07;99630.00;;;4.52;100.00
47726;BME280;33483;48.294;16.388;2023-02-04T04:15:34;99646.19;;;4.50;100.00
47726;BME280;33483;48.294;16.388;2023-02-04T04:18:02;99652.16;;;4.48;100.00
47726;BME280;33483;48.294;16.388;2023-02-04T04:20:30;99649.03;;;4.35;100.00
47726;BME280;33483;48.294;16.388;2023-02-04T04:22:57;99671.19;;;4.32;100.00
47726;BME280;33483;48.294;16.388;2023-02-04T04:25:24;99669.19;;;4.32;100.00
47726;BME280;33483;48.294;16.388;2023-02-04T04:27:51;99689.22;;;4.38;100.00
47726;BME280;33483;48.294;16.388;2023-02-04T04:30:18;99698.00;;;4.42;100.00
47726;BME280;33483;48.294;16.388;2023-02-04T04:32:46;99718.22;;;4.45;100.00
47726;BME280;33483;48.294;16.388;2023-02-04T04:35:13;99712.47;;;4.43;100.00
47726;BME280;33483;48.294;16.388;2023-02-04T04:37:40;99734.63;;;4.39;100.00
47726;BME280;33483;48.294;16.388;2023-02-04T04:40:08;99753.28;;;4.35;100.00
47726;BME280;33483;48.294;16.388;2023-02-04T04:42:35;99733.59;;;4.37;100.00
47726;BME280;33483;48.294;16.388;2023-02-04T04:45:07;99745.88;;;4.41;100.00
47726;BME280;33483;48.294;16.388;2023-02-04T04:47:37;99769.63;;;4.44;100.00
47726;BME280;33483;48.294;16.388;2023-02-04T04:50:04;99776.34;;;4.43;100.00
47726;BME280;33483;48.294;16.388;2023-02-04T04:52:31;99794.56;;;4.46;100.00
47726;BME280;33483;48.294;16.388;2023-02-04T04:55:01;99804.34;;;4.47;100.00
47726;BME280;33483;48.294;16.388;2023-02-04T04:57:28;99824.75;;;4.46;100.00
47726;BME280;33483;48.294;16.388;2023-02-04T04:59:55;99832.75;;;4.44;100.00
47726;BME280;33483;48.294;16.388;2023-02-04T05:02:22;99834.63;;;4.38;100.00
47726;BME280;33483;48.294;16.388;2023-02-04T05:04:49;99857.84;;;4.37;100.00
47726;BME280;33483;48.294;16.388;2023-02-04T05:07:17;99868.72;;;4.32;100.00
47726;BME280;33483;48.294;16.388;2023-02-04T05:09:43;99856.09;;;4.20;100.00
47726;BME280;33483;48.294;16.388;2023-02-04T05:12:11;99865.81;;;4.06;100.00
47726;BME280;33483;48.294;16.388;2023-02-04T05:14:40;99883.53;;;4.05;100.00
47726;BME280;33483;48.294;16.388;2023-02-04T05:17:10;99882.03;;;4.04;100.00
47726;BME280;33483;48.294;16.388;2023-02-04T05:19:38;99887.41;;;3.99;100.00
47726;BME280;33483;48.294;16.388;2023-02-04T05:22:05;99903.56;;;3.97;100.00
47726;BME280;33483;48.294;16.388;2023-02-04T05:24:32;99900.34;;;3.98;100.00
47726;BME280;33483;48.294;16.388;2023-02-04T05:26:59;99915.75;;;3.96;100.00
47726;BME280;33483;48.294;16.388;2023-02-04T05:29:26;99902.34;;;3.98;100.00
47726;BME280;33483;48.294;16.388;2023-02-04T05:31:53;99905.84;;;3.98;100.00
47726;BME280;33483;48.294;16.388;2023-02-04T05:34:20;99927.59;;;4.02;98.01
47726;BME280;33483;48.294;16.388;2023-02-04T05:36:47;99944.03;;;4.02;96.99
47726;BME280;33483;48.294;16.388;2023-02-04T05:39:14;99958.22;;;4.00;97.81
47726;BME280;33483;48.294;16.388;2023-02-04T05:41:41;99964.19;;;3.99;98.94
47726;BME280;33483;48.294;16.388;2023-02-04T05:44:08;99962.38;;;3.96;100.00
47726;BME280;33483;48.294;16.388;2023-02-04T05:46:38;99970.53;;;3.90;100.00
47726;BME280;33483;48.294;16.388;2023-02-04T05:49:05;99991.22;;;3.91;100.00
47726;BME280;33483;48.294;16.388;2023-02-04T05:51:33;99998.84;;;3.87;100.00
47726;BME280;33483;48.294;16.388;2023-02-04T05:54:00;100008.97;;;3.81;100.00
47726;BME280;33483;48.294;16.388;2023-02-04T05:56:30;100022.97;;;3.83;100.00
47726;BME280;33483;48.294;16.388;2023-02-04T05:58:57;100042.47;;;3.85;100.00
47726;BME280;33483;48.294;16.388;2023-02-04T06:01:24;100057.38;;;3.84;98.48
47726;BME280;33483;48.294;16.388;2023-02-04T06:03:51;100059.81;;;3.82;100.00
47726;BME280;33483;48.294;16.388;2023-02-04T06:06:18;100053.31;;;3.80;100.00
47726;BME280;33483;48.294;16.388;2023-02-04T06:08:45;100078.00;;;3.80;99.20
47726;BME280;33483;48.294;16.388;2023-02-04T06:11:12;100097.66;;;3.78;99.95
47726;BME280;33483;48.294;16.388;2023-02-04T06:13:39;100101.78;;;3.74;100.00
47726;BME280;33483;48.294;16.388;2023-02-04T06:16:06;100118.22;;;3.74;100.00
47726;BME280;33483;48.294;16.388;2023-02-04T06:18:33;100121.13;;;3.70;100.00
47726;BME280;33483;48.294;16.388;2023-02-04T06:21:00;100130.78;;;3.66;100.00
47726;BME280;33483;48.294;16.388;2023-02-04T06:23:30;100158.66;;;3.64;100.00
47726;BME280;33483;48.294;16.388;2023-02-04T06:26:01;100162.28;;;3.61;100.00
47726;BME280;33483;48.294;16.388;2023-02-04T06:28:28;100170.41;;;3.56;100.00
47726;BME280;33483;48.294;16.388;2023-02-04T06:30:55;100196.78;;;3.44;100.00
47726;BME280;33483;48.294;16.388;2023-02-04T06:33:22;100210.81;;;3.37;100.00
47726;BME280;33483;48.294;16.388;2023-02-04T06:35:50;100216.91;;;3.32;100.00
47726;BME280;33483;48.294;16.388;2023-02-04T06:38:17;100195.16;;;3.28;100.00
47726;BME280;33483;48.294;16.388;2023-02-04T06:40:45;100204.94;;;3.20;100.00
47726;BME280;33483;48.294;16.388;2023-02-04T06:43:15;100220.63;;;3.11;100.00
47726;BME280;33483;48.294;16.388;2023-02-04T06:45:42;100235.72;;;3.06;100.00
47726;BME280;33483;48.294;16.388;2023-02-04T06:48:09;100234.06;;;3.00;100.00
47726;BME280;33483;48.294;16.388;2023-02-04T06:50:36;100240.13;;;2.95;100.00
47726;BME280;33483;48.294;16.388;2023-02-04T06:53:03;100268.72;;;2.94;100.00
47726;BME280;33483;48.294;16.388;2023-02-04T06:55:31;100289.41;;;2.95;100.00
47726;BME280;33483;48.294;16.388;2023-02-04T06:57:58;100246.06;;;2.93;100.00
47726;BME280;33483;48.294;16.388;2023-02-04T07:00:25;100286.97;;;2.88;100.00
47726;BME280;33483;48.294;16.388;2023-02-04T07:02:56;100278.03;;;2.87;100.00
47726;BME280;33483;48.294;16.388;2023-02-04T07:05:25;100292.75;;;2.81;100.00
47726;BME280;33483;48.294;16.388;2023-02-04T07:07:51;100298.69;;;2.79;100.00
47726;BME280;33483;48.294;16.388;2023-02-04T07:10:19;100316.19;;;2.73;100.00
47726;BME280;33483;48.294;16.388;2023-02-04T07:12:46;100326.19;;;2.76;100.00
47726;BME280;33483;48.294;16.388;2023-02-04T07:15:14;100340.50;;;2.80;100.00
47726;BME280;33483;48.294;16.388;2023-02-04T07:17:41;100339.59;;;2.83;100.00
47726;BME280;33483;48.294;16.388;2023-02-04T07:20:10;100325.91;;;2.83;95.17
47726;BME280;33483;48.294;16.388;2023-02-04T07:22:40;100362.41;;;2.80;94.37
47726;BME280;33483;48.294;16.388;2023-02-04T07:25:08;100362.88;;;2.87;94.79
47726;BME280;33483;48.294;16.388;2023-02-04T07:27:36;100380.97;;;2.85;96.73
47726;BME280;33483;48.294;16.388;2023-02-04T07:30:03;100396.91;;;2.77;91.92
47726;BME280;33483;48.294;16.388;2023-02-04T07:32:30;100409.09;;;2.76;87.61
47726;BME280;33483;48.294;16.388;2023-02-04T07:34:59;100420.03;;;2.76;84.87
47726;BME280;33483;48.294;16.388;2023-02-04T07:37:26;100411.06;;;2.76;80.84
47726;BME280;33483;48.294;16.388;2023-02-04T07:39:53;100417.44;;;2.73;81.24
47726;BME280;33483;48.294;16.388;2023-02-04T07:42:20;100439.63;;;2.66;81.39
47726;BME280;33483;48.294;16.388;2023-02-04T07:44:53;100444.78;;;2.64;80.28
47726;BME280;33483;48.294;16.388;2023-02-04T07:47:20;100455.13;;;2.69;79.91
47726;BME280;33483;48.294;16.388;2023-02-04T07:49:49;100464.28;;;2.75;80.86
47726;BME280;33483;48.294;16.388;2023-02-04T07:52:16;100479.63;;;2.72;82.11
47726;BME280;33483;48.294;16.388;2023-02-04T07:54:44;100501.69;;;2.78;84.45
47726;BME280;33483;48.294;16.388;2023-02-04T07:57:15;100487.91;;;2.90;87.93
47726;BME280;33483;48.294;16.388;2023-02-04T07:59:45;100519.34;;;3.43;87.86
47726;BME280;33483;48.294;16.388;2023-02-04T08:02:12;100509.94;;;2.87;99.43
47726;BME280;33483;48.294;16.388;2023-02-04T08:04:41;100496.75;;;2.64;100.00
47726;BME280;33483;48.294;16.388;2023-02-04T08:07:08;100514.94;;;2.49;100.00
47726;BME280;33483;48.294;16.388;2023-02-04T08:09:35;100524.06;;;2.46;100.00
47726;BME280;33483;48.294;16.388;2023-02-04T08:12:02;100531.38;;;2.49;100.00
47726;BME280;33483;48.294;16.388;2023-02-04T08:14:30;100538.03;;;2.48;100.00
47726;BME280;33483;48.294;16.388;2023-02-04T08:16:56;100546.88;;;2.52;100.00
47726;BME280;33483;48.294;16.388;2023-02-04T08:19:24;100573.03;;;2.53;100.00
47726;BME280;33483;48.294;16.388;2023-02-04T08:21:51;100573.97;;;2.59;98.95
47726;BME280;33483;48.294;16.388;2023-02-04T08:24:18;100597.25;;;2.94;94.27
47726;BME280;33483;48.294;16.388;2023-02-04T08:26:45;100610.56;;;3.53;87.31
47726;BME280;33483;48.294;16.388;2023-02-04T08:29:12;100612.28;;;3.78;83.81
47726;BME280;33483;48.294;16.388;2023-02-04T08:31:40;100618.69;;;4.02;79.21
47726;BME280;33483;48.294;16.388;2023-02-04T08:34:07;100629.00;;;3.62;78.74
47726;BME280;33483;48.294;16.388;2023-02-04T08:36:34;100656.97;;;3.47;79.92
47726;BME280;33483;48.294;16.388;2023-02-04T08:39:02;100650.72;;;3.38;79.15
47726;BME280;33483;48.294;16.388;2023-02-04T08:41:28;100655.63;;;3.61;76.13
47726;BME280;33483;48.294;16.388;2023-02-04T08:43:56;100641.47;;;3.54;75.88
47726;BME280;33483;48.294;16.388;2023-02-04T08:46:23;100665.28;;;3.26;77.79
47726;BME280;33483;48.294;16.388;2023-02-04T08:48:50;100682.19;;;3.03;78.55
47726;BME280;33483;48.294;16.388;2023-02-04T08:51:17;100674.63;;;3.47;74.92
47726;BME280;33483;48.294;16.388;2023-02-04T08:53:45;100670.28;;;3.67;73.96
47726;BME280;33483;48.294;16.388;2023-02-04T08:56:12;100698.50;;;3.86;75.18
47726;BME280;33483;48.294;16.388;2023-02-04T08:58:42;100714.00;;;3.71;73.94
47726;BME280;33483;48.294;16.388;2023-02-04T09:01:10;100723.28;;;3.33;72.85
47726;BME280;33483;48.294;16.388;2023-02-04T09:03:37;100727.94;;;3.55;71.52
47726;BME280;33483;48.294;16.388;2023-02-04T09:06:07;100729.44;;;3.47;72.49
47726;BME280;33483;48.294;16.388;2023-02-04T09:08:34;100734.75;;;3.41;73.36
47726;BME280;33483;48.294;16.388;2023-02-04T09:11:01;100742.91;;;3.32;79.36
47726;BME280;33483;48.294;16.388;2023-02-04T09:13:29;100757.03;;;3.00;86.96
47726;BME280;33483;48.294;16.388;2023-02-04T09:15:56;100772.53;;;2.81;91.78
47726;BME280;33483;48.294;16.388;2023-02-04T09:18:25;100767.59;;;2.55;97.23
47726;BME280;33483;48.294;16.388;2023-02-04T09:20:52;100789.44;;;2.46;98.85
47726;BME280;33483;48.294;16.388;2023-02-04T09:23:20;100803.03;;;2.37;100.00
47726;BME280;33483;48.294;16.388;2023-02-04T09:25:48;100801.28;;;2.30;100.00
47726;BME280;33483;48.294;16.388;2023-02-04T09:28:16;100803.38;;;2.26;100.00
47726;BME280;33483;48.294;16.388;2023-02-04T09:30:43;100815.94;;;2.23;100.00
47726;BME280;33483;48.294;16.388;2023-02-04T09:33:12;100826.53;;;2.21;100.00
47726;BME280;33483;48.294;16.388;2023-02-04T09:35:43;100840.78;;;2.16;100.00
47726;BME280;33483;48.294;16.388;2023-02-04T09:38:10;100835.41;;;2.13;100.00
47726;BME280;33483;48.294;16.388;2023-02-04T09:40:40;100841.78;;;2.10;96.31
47726;BME280;33483;48.294;16.388;2023-02-04T09:43:08;100856.09;;;2.01;95.29
47726;BME280;33483;48.294;16.388;2023-02-04T09:45:37;100858.50;;;1.99;95.34
47726;BME280;33483;48.294;16.388;2023-02-04T09:48:08;100863.09;;;2.02;92.88
47726;BME280;33483;48.294;16.388;2023-02-04T09:50:38;100878.06;;;1.98;89.67
47726;BME280;33483;48.294;16.388;2023-02-04T09:53:06;100878.84;;;1.98;86.91
47726;BME280;33483;48.294;16.388;2023-02-04T09:55:34;100862.66;;;2.04;86.45
47726;BME280;33483;48.294;16.388;2023-02-04T09:58:13;100883.31;;;2.05;84.34
47726;BME280;33483;48.294;16.388;2023-02-04T10:00:42;100885.06;;;2.11;80.31
47726;BME280;33483;48.294;16.388;2023-02-04T10:03:13;100882.47;;;2.20;80.18
47726;BME280;33483;48.294;16.388;2023-02-04T10:05:44;100886.41;;;2.19;76.53
47726;BME280;33483;48.294;16.388;2023-02-04T10:08:13;100891.00;;;2.22;75.84
47726;BME280;33483;48.294;16.388;2023-02-04T10:10:40;100894.19;;;2.34;75.48
47726;BME280;33483;48.294;16.388;2023-02-04T10:13:07;100898.66;;;2.40;74.33
47726;BME280;33483;48.294;16.388;2023-02-04T10:15:38;100905.88;;;2.47;73.95
47726;BME280;33483;48.294;16.388;2023-02-04T10:18:06;100935.06;;;2.50;74.69
47726;BME280;33483;48.294;16.388;2023-02-04T10:20:33;100934.53;;;2.55;73.50
47726;BME280;33483;48.294;16.388;2023-02-04T10:23:00;100942.63;;;2.58;73.46
47726;BME280;33483;48.294;16.388;2023-02-04T10:25:27;100950.59;;;2.65;72.16
47726;BME280;33483;48.294;16.388;2023-02-04T10:28:00;100957.41;;;2.86;72.75
47726;BME280;33483;48.294;16.388;2023-02-04T10:30:29;100958.03;;;2.90;68.86
47726;BME280;33483;48.294;16.388;2023-02-04T10:33:12;100961.69;;;3.21;67.45
47726;BME280;33483;48.294;16.388;2023-02-04T10:35:44;100972.81;;;3.39;64.10
47726;BME280;33483;48.294;16.388;2023-02-04T10:38:11;100975.97;;;3.50;63.58
47726;BME280;33483;48.294;16.388;2023-02-04T10:40:38;100984.56;;;3.61;64.12
47726;BME280;33483;48.294;16.388;2023-02-04T10:45:36;100982.84;;;3.98;61.52
47726;BME280;33483;48.294;16.388;2023-02-04T10:48:04;100983.28;;;3.96;60.21
47726;BME280;33483;48.294;16.388;2023-02-04T10:50:31;100982.69;;;3.92;59.31
47726;BME280;33483;48.294;16.388;2023-02-04T10:52:59;100994.31;;;4.27;58.75
47726;BME280;33483;48.294;16.388;2023-02-04T10:55:46;100989.94;;;4.38;56.72
47726;BME280;33483;48.294;16.388;2023-02-04T10:58:15;100996.34;;;4.35;54.30
47726;BME280;33483;48.294;16.388;2023-02-04T11:00:43;100994.28;;;3.96;56.22
47726;BME280;33483;48.294;16.388;2023-02-04T11:03:22;101000.00;;;3.89;55.59
47726;BME280;33483;48.294;16.388;2023-02-04T11:05:50;101000.50;;;3.75;54.44
47726;BME280;33483;48.294;16.388;2023-02-04T11:08:22;101006.47;;;3.61;54.55
47726;BME280;33483;48.294;16.388;2023-02-04T11:11:14;101005.41;;;3.59;54.65
47726;BME280;33483;48.294;16.388;2023-02-04T11:13:39;100988.72;;;3.66;56.74
47726;BME280;33483;48.294;16.388;2023-02-04T11:21:40;100984.19;;;3.50;62.00
47726;BME280;33483;48.294;16.388;2023-02-04T11:26:32;101005.44;;;3.46;69.59
47726;BME280;33483;48.294;16.388;2023-02-04T11:34:11;100978.06;;;3.89;69.63
47726;BME280;33483;48.294;16.388;2023-02-04T11:36:49;100985.84;;;3.91;66.07
47726;BME280;33483;48.294;16.388;2023-02-04T11:39:17;100984.25;;;4.02;67.08
47726;BME280;33483;48.294;16.388;2023-02-04T11:41:44;100965.28;;;4.17;65.25
47726;BME280;33483;48.294;16.388;2023-02-04T11:44:12;100971.41;;;3.99;63.88
47726;BME280;33483;48.294;16.388;2023-02-04T11:46:40;100969.19;;;4.07;63.00
47726;BME280;33483;48.294;16.388;2023-02-04T11:49:15;100986.22;;;4.23;62.18
47726;BME280;33483;48.294;16.388;2023-02-04T11:51:43;100973.97;;;4.15;60.57
47726;BME280;33483;48.294;16.388;2023-02-04T11:54:13;100979.88;;;3.83;62.71
47726;BME280;33483;48.294;16.388;2023-02-04T11:56:42;100993.19;;;3.72;63.76
47726;BME280;33483;48.294;16.388;2023-02-04T11:59:10;100986.88;;;3.63;61.45
47726;BME280;33483;48.294;16.388;2023-02-04T12:01:38;101005.69;;;3.39;61.11
47726;BME280;33483;48.294;16.388;2023-02-04T12:04:20;101015.41;;;3.53;61.17
47726;BME280;33483;48.294;16.388;2023-02-04T12:07:00;101016.72;;;3.82;60.88
47726;BME280;33483;48.294;16.388;2023-02-04T12:09:29;101009.31;;;3.70;60.45
47726;BME280;33483;48.294;16.388;2023-02-04T12:11:57;101034.19;;;3.41;61.06
47726;BME280;33483;48.294;16.388;2023-02-04T12:14:32;101031.16;;;3.61;61.48
47726;BME280;33483;48.294;16.388;2023-02-04T12:16:59;101026.84;;;3.73;61.25
47726;BME280;33483;48.294;16.388;2023-02-04T12:19:27;101026.38;;;3.53;59.57
47726;BME280;33483;48.294;16.388;2023-02-04T12:21:54;101040.84;;;3.53;59.60
47726;BME280;33483;48.294;16.388;2023-02-04T12:24:21;101021.44;;;3.47;60.17
47726;BME280;33483;48.294;16.388;2023-02-04T12:26:48;101020.16;;;3.39;60.46
47726;BME280;33483;48.294;16.388;2023-02-04T12:29:15;101007.25;;;3.62;61.71
47726;BME280;33483;48.294;16.388;2023-02-04T12:31:42;101022.63;;;3.59;61.72
47726;BME280;33483;48.294;16.388;2023-02-04T12:34:10;101036.00;;;3.57;59.45
47726;BME280;33483;48.294;16.388;2023-02-04T12:36:37;101029.97;;;3.62;59.21
47726;BME280;33483;48.294;16.388;2023-02-04T12:39:04;101035.22;;;3.69;57.99
47726;BME280;33483;48.294;16.388;2023-02-04T12:41:31;101021.16;;;3.67;57.19
47726;BME280;33483;48.294;16.388;2023-02-04T12:43:58;101019.78;;;3.63;57.28
47726;BME280;33483;48.294;16.388;2023-02-04T12:46:27;101026.97;;;3.69;56.94
47726;BME280;33483;48.294;16.388;2023-02-04T12:48:54;101025.50;;;3.56;56.91
47726;BME280;33483;48.294;16.388;2023-02-04T12:51:21;101008.06;;;3.50;56.47
47726;BME280;33483;48.294;16.388;2023-02-04T12:53:49;101020.28;;;3.70;57.68
47726;BME280;33483;48.294;16.388;2023-02-04T12:56:16;101029.66;;;3.47;55.15
47726;BME280;33483;48.294;16.388;2023-02-04T12:58:46;101034.84;;;3.33;55.89
47726;BME280;33483;48.294;16.388;2023-02-04T13:01:13;101023.50;;;3.22;55.92
47726;BME280;33483;48.294;16.388;2023-02-04T13:03:40;101035.00;;;3.29;55.74
47726;BME280;33483;48.294;16.388;2023-02-04T13:06:07;101030.03;;;3.37;55.71
47726;BME280;33483;48.294;16.388;2023-02-04T13:08:34;101037.91;;;3.35;56.61
47726;BME280;33483;48.294;16.388;2023-02-04T13:11:01;101033.66;;;3.34;54.88
47726;BME280;33483;48.294;16.388;2023-02-04T13:13:29;101052.19;;;3.30;55.88